createdAt,value
2023-04-18T00:02:04.622Z,10.88
2023-04-18T00:07:13.601Z,10.79
2023-04-18T00:12:21.324Z,10.70
2023-04-18T00:17:28.825Z,10.63
2023-04-18T00:22:36.807Z,10.55
2023-04-18T00:27:45.222Z,10.49
2023-04-18T00:32:52.867Z,10.44
2023-04-18T00:38:00.307Z,10.41
2023-04-18T00:43:08.829Z,10.38
2023-04-18T00:48:16.383Z,10.36
2023-04-18T00:53:23.856Z,10.35
2023-04-18T00:58:31.705Z,10.34
2023-04-18T01:03:40.020Z,10.34
2023-04-18T01:08:48.265Z,10.33
2023-04-18T01:14:06.815Z,10.33
2023-04-18T01:19:17.461Z,10.34
2023-04-18T01:24:27.332Z,10.34
2023-04-18T01:29:36.261Z,10.35
2023-04-18T01:34:45.505Z,10.36
2023-04-18T01:39:54.293Z,10.35
2023-04-18T01:45:01.543Z,10.36
2023-04-18T01:50:10.763Z,10.36
2023-04-18T01:55:18.611Z,10.36
2023-04-18T02:00:27.300Z,10.36
2023-04-18T02:05:34.926Z,10.35
2023-04-18T02:10:42.993Z,10.35
2023-04-18T02:15:51.306Z,10.34
2023-04-18T02:20:58.859Z,10.33
2023-04-18T02:26:06.372Z,10.32
2023-04-18T02:31:15.303Z,10.30
2023-04-18T02:36:22.958Z,10.29
2023-04-18T02:41:30.564Z,10.28
2023-04-18T02:46:38.348Z,10.27
2023-04-18T02:51:48.312Z,10.25
2023-04-18T02:56:57.476Z,10.23
2023-04-18T03:02:35.197Z,10.22
2023-04-18T03:07:51.326Z,10.20
2023-04-18T03:12:59.894Z,10.20
2023-04-18T03:18:09.170Z,10.18
2023-04-18T03:23:17.533Z,10.17
2023-04-18T03:28:26.163Z,10.16
2023-04-18T03:33:34.261Z,10.14
2023-04-18T03:38:47.941Z,10.12
2023-04-18T03:43:55.603Z,10.10
2023-04-18T03:49:03.175Z,10.08
2023-04-18T03:54:11.164Z,10.06
2023-04-18T03:59:18.924Z,10.03
2023-04-18T04:04:28.090Z,10.02
2023-04-18T04:09:36.964Z,9.99
2023-04-18T04:14:44.301Z,9.97
2023-04-18T04:19:52.883Z,9.94
2023-04-18T04:25:01.288Z,9.93
2023-04-18T04:30:14.539Z,9.92
2023-04-18T04:35:21.966Z,9.93
2023-04-18T04:40:29.869Z,9.95
2023-04-18T04:45:45.931Z,10.01
2023-04-18T04:50:57.857Z,10.08
2023-04-18T04:56:05.246Z,10.18
2023-04-18T05:01:13.774Z,10.28
2023-04-18T05:06:23.099Z,10.41
2023-04-18T05:11:31.222Z,10.54
2023-04-18T05:16:39.109Z,10.71
2023-04-18T05:21:47.089Z,10.90
2023-04-18T05:26:54.790Z,11.11
2023-04-18T05:32:03.921Z,11.34
2023-04-18T05:37:12.011Z,11.60
2023-04-18T05:42:19.448Z,11.87
2023-04-18T05:47:28.869Z,12.15
2023-04-18T05:52:36.410Z,12.43
2023-04-18T05:57:43.821Z,12.71
2023-04-18T06:02:51.543Z,12.98
2023-04-18T06:07:59.548Z,13.23
2023-04-18T06:13:07.607Z,13.49
2023-04-18T06:18:15.688Z,13.75
2023-04-18T06:23:24.081Z,14.00
2023-04-18T06:28:31.648Z,14.22
2023-04-18T06:33:40.201Z,14.44
2023-04-18T06:38:47.705Z,14.70
2023-04-18T06:44:03.421Z,15.01
2023-04-18T06:49:11.656Z,15.33
2023-04-18T06:54:20.160Z,15.63
2023-04-18T06:59:27.571Z,15.93
2023-04-18T07:04:35.566Z,16.24
2023-04-18T07:09:43.939Z,16.55
2023-04-18T07:14:51.938Z,16.85
2023-04-18T07:19:59.879Z,17.16
2023-04-18T07:25:08.683Z,17.31
2023-04-18T07:30:18.245Z,17.39
2023-04-18T07:35:25.969Z,17.50
2023-04-18T07:40:33.554Z,17.62
2023-04-18T07:45:43.856Z,17.64
2023-04-18T07:50:52.456Z,17.68
2023-04-18T07:55:59.835Z,17.90
2023-04-18T08:01:08.156Z,17.95
2023-04-18T08:06:15.830Z,17.89
2023-04-18T08:11:23.719Z,17.88
2023-04-18T08:16:31.215Z,17.91
2023-04-18T08:21:39.952Z,17.95
2023-04-18T08:26:47.948Z,17.97
2023-04-18T08:31:55.320Z,17.97
2023-04-18T08:37:02.746Z,17.97
2023-04-18T08:42:12.277Z,17.92
2023-04-18T08:47:19.855Z,17.82
2023-04-18T08:52:28.754Z,17.65
2023-04-18T08:57:37.372Z,17.47
2023-04-18T09:02:47.450Z,17.28
2023-04-18T09:07:56.543Z,17.11
2023-04-18T09:13:05.585Z,16.95
2023-04-18T09:18:13.671Z,16.81
2023-04-18T09:23:27.277Z,16.70
2023-04-18T09:28:37.889Z,16.61
2023-04-18T09:33:57.173Z,16.55
2023-04-18T09:39:05.727Z,16.50
2023-04-18T09:44:15.896Z,16.46
2023-04-18T09:49:24.147Z,16.40
2023-04-18T09:54:35.408Z,16.39
2023-04-18T09:59:48.495Z,16.35
2023-04-18T10:04:57.767Z,16.32
2023-04-18T10:10:05.418Z,16.29
2023-04-18T10:15:16.182Z,16.28
2023-04-18T10:20:25.546Z,16.27
2023-04-18T10:25:55.425Z,16.27
2023-04-18T10:31:08.310Z,16.28
2023-04-18T10:36:20.935Z,16.31
2023-04-18T10:41:30.885Z,16.33
2023-04-18T10:46:38.503Z,16.37
2023-04-18T10:51:46.732Z,16.39
2023-04-18T10:56:58.321Z,16.41
2023-04-18T11:02:25.330Z,16.46
2023-04-18T11:07:40.541Z,16.51
2023-04-18T11:12:48.524Z,16.54
2023-04-18T11:18:04.274Z,16.57
2023-04-18T11:23:21.426Z,16.58
2023-04-18T11:28:31.422Z,16.61
2023-04-18T11:33:39.860Z,16.67
2023-04-18T11:38:47.385Z,16.73
2023-04-18T11:43:54.700Z,16.76
2023-04-18T11:49:02.259Z,16.79
2023-04-18T11:54:30.168Z,16.82
2023-04-18T11:59:37.747Z,16.87
2023-04-18T12:04:59.731Z,16.92
2023-04-18T12:10:09.568Z,16.93
2023-04-18T12:15:20.043Z,16.93
2023-04-18T12:20:35.302Z,16.91
2023-04-18T12:25:43.125Z,16.90
2023-04-18T12:30:50.799Z,16.91
2023-04-18T12:35:58.650Z,16.92
2023-04-18T12:41:06.346Z,16.95
2023-04-18T12:46:14.982Z,16.97
2023-04-18T12:51:23.265Z,16.99
2023-04-18T12:56:30.930Z,17.00
2023-04-18T13:01:38.396Z,17.03
2023-04-18T13:06:46.139Z,17.07
2023-04-18T13:11:54.135Z,17.09
2023-04-18T13:17:01.676Z,17.10
2023-04-18T13:22:09.615Z,17.10
2023-04-18T13:27:51.356Z,17.10
2023-04-18T13:33:24.050Z,17.07
2023-04-18T13:38:32.038Z,17.07
2023-04-18T13:43:39.473Z,17.04
2023-04-18T13:48:47.312Z,17.01
2023-04-18T13:53:54.847Z,16.98
2023-04-18T13:59:02.432Z,16.93
2023-04-18T14:04:10.051Z,16.90
2023-04-18T14:09:18.607Z,16.86
2023-04-18T14:14:26.246Z,16.83
2023-04-18T14:19:35.219Z,16.79
2023-04-18T14:24:42.754Z,16.76
2023-04-18T14:29:50.111Z,16.73
2023-04-18T14:34:59.223Z,16.68
2023-04-18T14:40:08.715Z,16.63
2023-04-18T14:45:17.341Z,16.56
2023-04-18T14:50:25.078Z,16.49
2023-04-18T14:55:32.771Z,16.41
2023-04-18T15:00:40.331Z,16.32
2023-04-18T15:05:49.369Z,16.25
2023-04-18T15:10:56.936Z,16.16
2023-04-18T15:16:04.462Z,16.07
2023-04-18T15:21:11.951Z,16.00
2023-04-18T15:26:19.352Z,15.92
2023-04-18T15:31:27.997Z,15.83
2023-04-18T15:36:36.369Z,15.73
2023-04-18T15:41:43.891Z,15.63
2023-04-18T15:46:51.675Z,15.53
2023-04-18T15:51:59.425Z,15.44
2023-04-18T15:57:06.829Z,15.35
2023-04-18T16:02:14.726Z,15.27
2023-04-18T16:07:22.196Z,15.18
2023-04-18T16:12:29.397Z,15.10
2023-04-18T16:17:37.255Z,15.01
2023-04-18T16:22:44.647Z,14.92
2023-04-18T16:27:52.113Z,14.83
2023-04-18T16:32:59.543Z,14.75
2023-04-18T16:38:07.459Z,14.67
2023-04-18T16:43:15.070Z,14.58
2023-04-18T16:48:22.792Z,14.50
2023-04-18T16:53:30.368Z,14.42
2023-04-18T16:58:37.866Z,14.34
2023-04-18T17:03:45.348Z,14.26
2023-04-18T17:08:54.009Z,14.17
2023-04-18T17:14:02.016Z,14.09
2023-04-18T17:19:09.791Z,14.01
2023-04-18T17:24:19.289Z,13.93
2023-04-18T17:29:26.693Z,13.85
2023-04-18T17:34:34.383Z,13.86
2023-04-18T17:39:41.801Z,14.02
2023-04-18T17:44:49.511Z,14.09
2023-04-18T17:49:56.993Z,14.10
2023-04-18T17:55:04.488Z,14.10
2023-04-18T18:00:15.042Z,14.06
2023-04-18T18:05:23.742Z,13.98
2023-04-18T18:10:31.566Z,13.87
2023-04-18T18:15:38.920Z,13.75
2023-04-18T18:20:47.087Z,13.62
2023-04-18T18:25:54.706Z,13.50
2023-04-18T18:31:02.273Z,13.38
2023-04-18T18:36:10.070Z,13.26
2023-04-18T18:41:17.606Z,13.14
2023-04-18T18:46:25.469Z,13.03
2023-04-18T18:51:33.115Z,12.93
2023-04-18T18:56:42.637Z,12.83
2023-04-18T19:01:50.018Z,12.73
2023-04-18T19:06:57.791Z,12.65
2023-04-18T19:12:05.406Z,12.57
2023-04-18T19:17:12.821Z,12.49
2023-04-18T19:22:20.261Z,12.42
2023-04-18T19:27:27.629Z,12.29
2023-04-18T19:32:35.298Z,12.04
2023-04-18T19:37:43.574Z,11.91
2023-04-18T19:42:50.977Z,11.91
2023-04-18T19:47:58.775Z,11.90
2023-04-18T19:53:06.310Z,11.86
2023-04-18T19:58:13.627Z,11.82
2023-04-18T20:03:21.342Z,11.79
2023-04-18T20:08:29.951Z,11.74
2023-04-18T20:13:37.892Z,11.69
2023-04-18T20:18:47.690Z,11.65
2023-04-18T20:23:56.963Z,11.62
2023-04-18T20:29:04.437Z,11.59
2023-04-18T20:34:11.910Z,11.58
2023-04-18T20:39:19.362Z,11.56
2023-04-18T20:44:26.776Z,11.54
2023-04-18T20:49:34.543Z,11.52
2023-04-18T20:54:42.424Z,11.50
2023-04-18T20:59:49.848Z,11.48
2023-04-18T21:04:57.256Z,11.45
2023-04-18T21:10:04.962Z,11.41
2023-04-18T21:15:14.040Z,11.37
2023-04-18T21:20:21.950Z,11.32
2023-04-18T21:25:29.458Z,11.25
2023-04-18T21:30:37.082Z,11.19
2023-04-18T21:35:44.462Z,11.13
2023-04-18T21:40:51.929Z,11.08
2023-04-18T21:45:59.582Z,11.02
2023-04-18T21:51:07.713Z,10.96
2023-04-18T21:56:15.624Z,10.91
2023-04-18T22:01:23.081Z,10.85
2023-04-18T22:06:31.247Z,10.79
2023-04-18T22:11:38.720Z,10.72
2023-04-18T22:16:46.334Z,10.66
2023-04-18T22:21:53.724Z,10.58
2023-04-18T22:27:01.334Z,10.51
2023-04-18T22:32:09.199Z,10.44
2023-04-18T22:37:16.619Z,10.38
2023-04-18T22:42:24.085Z,10.32
2023-04-18T22:47:31.572Z,10.27
2023-04-18T22:52:39.772Z,10.23
2023-04-18T22:57:47.701Z,10.19
2023-04-18T23:02:55.533Z,10.17
2023-04-18T23:08:03.064Z,10.14
2023-04-18T23:13:10.607Z,10.12
2023-04-18T23:18:18.655Z,10.10
2023-04-18T23:23:26.263Z,10.08
2023-04-18T23:28:34.643Z,10.05
2023-04-18T23:33:42.209Z,10.03
2023-04-18T23:38:49.644Z,10.01
2023-04-18T23:43:57.165Z,9.98
2023-04-18T23:49:04.543Z,9.96
2023-04-18T23:54:12.370Z,9.93
2023-04-18T23:59:20.020Z,9.90
